sensor_id;sensor_type;location;lat;lon;timestamp;P1;durP1;ratioP1;P2;durP2;ratioP2
21827;SDS011;11076;47.942;11.804;2023-08-31T00:00:49;4.90;;;1.70;;
21827;SDS011;11076;47.942;11.804;2023-08-31T00:05:55;1.50;;;1.40;;
21827;SDS011;11076;47.942;11.804;2023-08-31T00:10:58;1.73;;;1.60;;
21827;SDS011;11076;47.942;11.804;2023-08-31T00:16:02;1.60;;;1.50;;
21827;SDS011;11076;47.942;11.804;2023-08-31T00:21:04;1.85;;;1.75;;
21827;SDS011;11076;47.942;11.804;2023-08-31T00:26:07;1.70;;;1.60;;
21827;SDS011;11076;47.942;11.804;2023-08-31T00:31:11;2.00;;;1.60;;
21827;SDS011;11076;47.942;11.804;2023-08-31T00:36:14;2.92;;;1.60;;
21827;SDS011;11076;47.942;11.804;2023-08-31T00:41:16;2.78;;;1.70;;
21827;SDS011;11076;47.942;11.804;2023-08-31T00:46:19;4.13;;;1.70;;
21827;SDS011;11076;47.942;11.804;2023-08-31T00:51:22;2.25;;;1.70;;
21827;SDS011;11076;47.942;11.804;2023-08-31T00:56:24;3.28;;;1.30;;
21827;SDS011;11076;47.942;11.804;2023-08-31T01:12:50;3.60;;;1.52;;
21827;SDS011;11076;47.942;11.804;2023-08-31T01:17:54;3.78;;;1.50;;
21827;SDS011;11076;47.942;11.804;2023-08-31T01:23:00;2.22;;;1.70;;
21827;SDS011;11076;47.942;11.804;2023-08-31T01:28:05;2.28;;;2.03;;
21827;SDS011;11076;47.942;11.804;2023-08-31T01:33:08;1.65;;;1.55;;
21827;SDS011;11076;47.942;11.804;2023-08-31T01:38:11;3.13;;;1.80;;
21827;SDS011;11076;47.942;11.804;2023-08-31T01:43:20;2.20;;;2.00;;
21827;SDS011;11076;47.942;11.804;2023-08-31T01:48:24;2.28;;;1.40;;
21827;SDS011;11076;47.942;11.804;2023-08-31T01:53:27;5.40;;;1.73;;
21827;SDS011;11076;47.942;11.804;2023-08-31T01:58:29;3.83;;;1.92;;
21827;SDS011;11076;47.942;11.804;2023-08-31T02:03:32;1.75;;;1.63;;
21827;SDS011;11076;47.942;11.804;2023-08-31T02:08:34;3.15;;;1.70;;
21827;SDS011;11076;47.942;11.804;2023-08-31T02:13:36;2.10;;;1.90;;
21827;SDS011;11076;47.942;11.804;2023-08-31T02:18:39;2.03;;;1.90;;
21827;SDS011;11076;47.942;11.804;2023-08-31T02:23:41;1.70;;;1.45;;
21827;SDS011;11076;47.942;11.804;2023-08-31T02:28:44;1.67;;;1.58;;
21827;SDS011;11076;47.942;11.804;2023-08-31T02:33:46;2.58;;;1.70;;
21827;SDS011;11076;47.942;11.804;2023-08-31T02:38:49;1.80;;;1.70;;
21827;SDS011;11076;47.942;11.804;2023-08-31T02:43:52;1.75;;;1.60;;
21827;SDS011;11076;47.942;11.804;2023-08-31T02:48:55;1.80;;;1.70;;
21827;SDS011;11076;47.942;11.804;2023-08-31T02:53:58;1.85;;;1.73;;
21827;SDS011;11076;47.942;11.804;2023-08-31T02:59:00;1.52;;;1.42;;
21827;SDS011;11076;47.942;11.804;2023-08-31T03:04:03;1.55;;;1.45;;
21827;SDS011;11076;47.942;11.804;2023-08-31T03:09:05;1.60;;;1.50;;
21827;SDS011;11076;47.942;11.804;2023-08-31T03:14:08;1.48;;;1.33;;
21827;SDS011;11076;47.942;11.804;2023-08-31T03:19:12;2.15;;;1.83;;
21827;SDS011;11076;47.942;11.804;2023-08-31T03:24:14;3.50;;;1.90;;
21827;SDS011;11076;47.942;11.804;2023-08-31T03:29:17;3.97;;;1.50;;
21827;SDS011;11076;47.942;11.804;2023-08-31T03:34:19;1.88;;;1.70;;
21827;SDS011;11076;47.942;11.804;2023-08-31T03:39:22;1.58;;;1.45;;
21827;SDS011;11076;47.942;11.804;2023-08-31T03:44:24;2.50;;;1.88;;
21827;SDS011;11076;47.942;11.804;2023-08-31T03:49:27;1.88;;;1.77;;
21827;SDS011;11076;47.942;11.804;2023-08-31T03:54:29;3.10;;;1.70;;
21827;SDS011;11076;47.942;11.804;2023-08-31T03:59:32;2.03;;;1.50;;
21827;SDS011;11076;47.942;11.804;2023-08-31T04:04:35;1.40;;;1.30;;
21827;SDS011;11076;47.942;11.804;2023-08-31T04:09:38;1.58;;;1.45;;
21827;SDS011;11076;47.942;11.804;2023-08-31T04:14:40;2.42;;;2.22;;
21827;SDS011;11076;47.942;11.804;2023-08-31T04:19:42;4.60;;;2.10;;
21827;SDS011;11076;47.942;11.804;2023-08-31T04:24:45;2.50;;;2.22;;
21827;SDS011;11076;47.942;11.804;2023-08-31T04:29:48;5.05;;;2.40;;
21827;SDS011;11076;47.942;11.804;2023-08-31T04:34:50;2.58;;;2.38;;
21827;SDS011;11076;47.942;11.804;2023-08-31T04:39:53;2.65;;;2.33;;
21827;SDS011;11076;47.942;11.804;2023-08-31T04:44:56;3.97;;;2.30;;
21827;SDS011;11076;47.942;11.804;2023-08-31T04:49:58;2.58;;;2.22;;
21827;SDS011;11076;47.942;11.804;2023-08-31T04:55:01;2.53;;;2.33;;
21827;SDS011;11076;47.942;11.804;2023-08-31T05:00:06;7.05;;;2.60;;
21827;SDS011;11076;47.942;11.804;2023-08-31T05:05:11;3.47;;;2.75;;
21827;SDS011;11076;47.942;11.804;2023-08-31T05:10:15;3.55;;;2.25;;
21827;SDS011;11076;47.942;11.804;2023-08-31T05:15:18;3.40;;;2.22;;
21827;SDS011;11076;47.942;11.804;2023-08-31T05:20:21;2.80;;;2.13;;
21827;SDS011;11076;47.942;11.804;2023-08-31T05:25:25;2.15;;;1.95;;
21827;SDS011;11076;47.942;11.804;2023-08-31T05:30:29;2.38;;;2.10;;
21827;SDS011;11076;47.942;11.804;2023-08-31T05:35:31;2.42;;;2.22;;
21827;SDS011;11076;47.942;11.804;2023-08-31T05:40:34;3.00;;;2.70;;
21827;SDS011;11076;47.942;11.804;2023-08-31T05:45:36;5.80;;;2.50;;
21827;SDS011;11076;47.942;11.804;2023-08-31T05:50:38;5.03;;;2.80;;
21827;SDS011;11076;47.942;11.804;2023-08-31T05:55:41;2.33;;;2.13;;
21827;SDS011;11076;47.942;11.804;2023-08-31T06:00:44;2.90;;;2.30;;
21827;SDS011;11076;47.942;11.804;2023-08-31T06:05:47;3.17;;;2.15;;
21827;SDS011;11076;47.942;11.804;2023-08-31T06:10:50;2.13;;;1.92;;
21827;SDS011;11076;47.942;11.804;2023-08-31T06:15:53;5.30;;;2.17;;
21827;SDS011;11076;47.942;11.804;2023-08-31T06:20:57;2.75;;;2.15;;
21827;SDS011;11076;47.942;11.804;2023-08-31T06:26:00;1.88;;;1.77;;
21827;SDS011;11076;47.942;11.804;2023-08-31T06:31:02;2.60;;;1.80;;
21827;SDS011;11076;47.942;11.804;2023-08-31T06:36:04;2.67;;;2.00;;
21827;SDS011;11076;47.942;11.804;2023-08-31T06:41:07;3.65;;;2.28;;
21827;SDS011;11076;47.942;11.804;2023-08-31T06:46:11;2.33;;;1.90;;
21827;SDS011;11076;47.942;11.804;2023-08-31T06:51:24;1.98;;;1.85;;
21827;SDS011;11076;47.942;11.804;2023-08-31T06:56:26;2.58;;;2.10;;
21827;SDS011;11076;47.942;11.804;2023-08-31T07:01:29;2.60;;;2.40;;
21827;SDS011;11076;47.942;11.804;2023-08-31T07:06:33;3.72;;;2.28;;
21827;SDS011;11076;47.942;11.804;2023-08-31T07:11:37;4.13;;;2.38;;
21827;SDS011;11076;47.942;11.804;2023-08-31T07:16:39;3.03;;;1.85;;
21827;SDS011;11076;47.942;11.804;2023-08-31T07:21:42;3.35;;;2.13;;
21827;SDS011;11076;47.942;11.804;2023-08-31T07:26:44;2.55;;;2.08;;
21827;SDS011;11076;47.942;11.804;2023-08-31T07:31:47;2.35;;;1.83;;
21827;SDS011;11076;47.942;11.804;2023-08-31T07:36:49;2.45;;;2.13;;
21827;SDS011;11076;47.942;11.804;2023-08-31T07:41:53;2.03;;;1.83;;
21827;SDS011;11076;47.942;11.804;2023-08-31T07:46:56;3.00;;;1.77;;
21827;SDS011;11076;47.942;11.804;2023-08-31T07:51:59;3.63;;;1.95;;
21827;SDS011;11076;47.942;11.804;2023-08-31T07:57:01;2.42;;;2.20;;
21827;SDS011;11076;47.942;11.804;2023-08-31T08:02:04;2.22;;;2.03;;
21827;SDS011;11076;47.942;11.804;2023-08-31T08:07:06;4.00;;;2.03;;
21827;SDS011;11076;47.942;11.804;2023-08-31T08:12:09;4.18;;;1.83;;
21827;SDS011;11076;47.942;11.804;2023-08-31T08:17:11;3.78;;;2.10;;
21827;SDS011;11076;47.942;11.804;2023-08-31T08:22:14;4.38;;;1.95;;
21827;SDS011;11076;47.942;11.804;2023-08-31T08:27:16;2.30;;;1.70;;
21827;SDS011;11076;47.942;11.804;2023-08-31T08:32:20;1.70;;;1.60;;
21827;SDS011;11076;47.942;11.804;2023-08-31T08:37:23;2.28;;;2.00;;
21827;SDS011;11076;47.942;11.804;2023-08-31T08:42:29;2.22;;;1.55;;
21827;SDS011;11076;47.942;11.804;2023-08-31T08:47:33;4.55;;;1.75;;
21827;SDS011;11076;47.942;11.804;2023-08-31T08:52:36;1.90;;;1.55;;
21827;SDS011;11076;47.942;11.804;2023-08-31T08:57:39;1.80;;;1.42;;
21827;SDS011;11076;47.942;11.804;2023-08-31T09:02:42;1.15;;;1.15;;
21827;SDS011;11076;47.942;11.804;2023-08-31T09:13:09;1.80;;;1.58;;
21827;SDS011;11076;47.942;11.804;2023-08-31T09:18:22;2.20;;;1.73;;
21827;SDS011;11076;47.942;11.804;2023-08-31T09:23:25;2.78;;;1.85;;
21827;SDS011;11076;47.942;11.804;2023-08-31T09:28:27;2.08;;;1.50;;
21827;SDS011;11076;47.942;11.804;2023-08-31T09:33:31;1.33;;;1.23;;
21827;SDS011;11076;47.942;11.804;2023-08-31T09:38:40;2.65;;;1.33;;
21827;SDS011;11076;47.942;11.804;2023-08-31T09:43:44;1.70;;;1.52;;
21827;SDS011;11076;47.942;11.804;2023-08-31T09:48:46;2.08;;;1.20;;
21827;SDS011;11076;47.942;11.804;2023-08-31T09:53:50;0.93;;;0.93;;
21827;SDS011;11076;47.942;11.804;2023-08-31T09:58:59;1.20;;;1.20;;
21827;SDS011;11076;47.942;11.804;2023-08-31T10:04:02;1.65;;;1.20;;
21827;SDS011;11076;47.942;11.804;2023-08-31T10:09:05;1.77;;;1.67;;
21827;SDS011;11076;47.942;11.804;2023-08-31T10:14:11;2.15;;;1.27;;
21827;SDS011;11076;47.942;11.804;2023-08-31T10:19:15;1.80;;;1.08;;
21827;SDS011;11076;47.942;11.804;2023-08-31T10:24:18;2.50;;;1.65;;
21827;SDS011;11076;47.942;11.804;2023-08-31T10:29:26;3.42;;;1.27;;
21827;SDS011;11076;47.942;11.804;2023-08-31T10:34:40;1.60;;;1.50;;
21827;SDS011;11076;47.942;11.804;2023-08-31T10:39:42;1.65;;;1.40;;
21827;SDS011;11076;47.942;11.804;2023-08-31T10:44:45;1.67;;;1.55;;
21827;SDS011;11076;47.942;11.804;2023-08-31T10:49:50;1.45;;;1.33;;
21827;SDS011;11076;47.942;11.804;2023-08-31T10:54:57;2.80;;;1.65;;
21827;SDS011;11076;47.942;11.804;2023-08-31T10:59:59;2.63;;;1.58;;
21827;SDS011;11076;47.942;11.804;2023-08-31T11:10:21;1.88;;;1.52;;
21827;SDS011;11076;47.942;11.804;2023-08-31T11:15:26;2.15;;;1.45;;
21827;SDS011;11076;47.942;11.804;2023-08-31T11:20:29;1.58;;;1.48;;
21827;SDS011;11076;47.942;11.804;2023-08-31T11:25:33;1.70;;;1.50;;
21827;SDS011;11076;47.942;11.804;2023-08-31T11:30:36;1.80;;;1.08;;
21827;SDS011;11076;47.942;11.804;2023-08-31T11:35:39;3.28;;;1.58;;
21827;SDS011;11076;47.942;11.804;2023-08-31T11:40:44;2.10;;;1.67;;
21827;SDS011;11076;47.942;11.804;2023-08-31T11:45:48;1.73;;;1.60;;
21827;SDS011;11076;47.942;11.804;2023-08-31T11:50:51;2.35;;;1.30;;
21827;SDS011;11076;47.942;11.804;2023-08-31T11:55:55;2.88;;;1.70;;
21827;SDS011;11076;47.942;11.804;2023-08-31T12:00:57;4.07;;;1.50;;
21827;SDS011;11076;47.942;11.804;2023-08-31T12:06:00;3.00;;;1.42;;
21827;SDS011;11076;47.942;11.804;2023-08-31T12:11:08;4.55;;;1.55;;
21827;SDS011;11076;47.942;11.804;2023-08-31T12:16:11;2.75;;;1.55;;
21827;SDS011;11076;47.942;11.804;2023-08-31T12:21:14;4.35;;;1.35;;
21827;SDS011;11076;47.942;11.804;2023-08-31T12:26:16;2.58;;;1.45;;
21827;SDS011;11076;47.942;11.804;2023-08-31T12:31:18;1.08;;;1.08;;
21827;SDS011;11076;47.942;11.804;2023-08-31T12:36:21;3.90;;;1.40;;
21827;SDS011;11076;47.942;11.804;2023-08-31T12:41:23;4.43;;;1.77;;
21827;SDS011;11076;47.942;11.804;2023-08-31T12:46:26;4.85;;;1.95;;
21827;SDS011;11076;47.942;11.804;2023-08-31T12:51:29;4.45;;;1.70;;
21827;SDS011;11076;47.942;11.804;2023-08-31T12:56:32;1.40;;;1.30;;
21827;SDS011;11076;47.942;11.804;2023-08-31T13:01:34;4.25;;;2.08;;
21827;SDS011;11076;47.942;11.804;2023-08-31T13:06:38;4.07;;;1.35;;
21827;SDS011;11076;47.942;11.804;2023-08-31T13:11:40;2.33;;;1.58;;
21827;SDS011;11076;47.942;11.804;2023-08-31T13:16:43;2.00;;;1.52;;
21827;SDS011;11076;47.942;11.804;2023-08-31T13:21:45;3.92;;;1.88;;
21827;SDS011;11076;47.942;11.804;2023-08-31T13:26:47;5.57;;;1.60;;
21827;SDS011;11076;47.942;11.804;2023-08-31T13:31:51;5.20;;;1.75;;
21827;SDS011;11076;47.942;11.804;2023-08-31T13:36:53;3.53;;;1.85;;
21827;SDS011;11076;47.942;11.804;2023-08-31T13:41:56;3.78;;;1.77;;
21827;SDS011;11076;47.942;11.804;2023-08-31T13:46:58;3.50;;;1.75;;
21827;SDS011;11076;47.942;11.804;2023-08-31T13:52:00;2.88;;;1.90;;
21827;SDS011;11076;47.942;11.804;2023-08-31T13:57:03;3.15;;;1.60;;
21827;SDS011;11076;47.942;11.804;2023-08-31T14:02:05;4.80;;;1.50;;
21827;SDS011;11076;47.942;11.804;2023-08-31T14:07:08;3.95;;;1.77;;
21827;SDS011;11076;47.942;11.804;2023-08-31T14:12:10;6.18;;;1.60;;
21827;SDS011;11076;47.942;11.804;2023-08-31T14:17:13;2.15;;;1.67;;
21827;SDS011;11076;47.942;11.804;2023-08-31T14:22:15;3.58;;;1.50;;
21827;SDS011;11076;47.942;11.804;2023-08-31T14:27:18;3.40;;;1.85;;
21827;SDS011;11076;47.942;11.804;2023-08-31T14:32:21;1.60;;;1.50;;
21827;SDS011;11076;47.942;11.804;2023-08-31T14:37:24;6.78;;;1.98;;
21827;SDS011;11076;47.942;11.804;2023-08-31T14:42:26;5.00;;;1.90;;
21827;SDS011;11076;47.942;11.804;2023-08-31T14:47:29;6.60;;;1.55;;
21827;SDS011;11076;47.942;11.804;2023-08-31T14:52:31;4.35;;;1.85;;
21827;SDS011;11076;47.942;11.804;2023-08-31T14:57:34;3.92;;;1.90;;
21827;SDS011;11076;47.942;11.804;2023-08-31T15:02:36;7.43;;;2.17;;
21827;SDS011;11076;47.942;11.804;2023-08-31T15:07:38;3.28;;;1.80;;
21827;SDS011;11076;47.942;11.804;2023-08-31T15:12:41;5.43;;;1.60;;
21827;SDS011;11076;47.942;11.804;2023-08-31T15:17:43;4.03;;;1.98;;
21827;SDS011;11076;47.942;11.804;2023-08-31T15:22:46;3.63;;;1.52;;
21827;SDS011;11076;47.942;11.804;2023-08-31T15:27:48;2.65;;;1.55;;
21827;SDS011;11076;47.942;11.804;2023-08-31T15:32:50;4.07;;;1.70;;
21827;SDS011;11076;47.942;11.804;2023-08-31T15:37:53;3.70;;;1.70;;
21827;SDS011;11076;47.942;11.804;2023-08-31T15:42:55;2.58;;;1.40;;
21827;SDS011;11076;47.942;11.804;2023-08-31T15:47:58;2.25;;;1.70;;
21827;SDS011;11076;47.942;11.804;2023-08-31T15:53:00;2.70;;;1.58;;
21827;SDS011;11076;47.942;11.804;2023-08-31T15:58:02;3.88;;;1.60;;
21827;SDS011;11076;47.942;11.804;2023-08-31T16:03:05;3.90;;;1.52;;
21827;SDS011;11076;47.942;11.804;2023-08-31T16:08:08;4.15;;;1.73;;
21827;SDS011;11076;47.942;11.804;2023-08-31T16:13:10;2.72;;;1.55;;
21827;SDS011;11076;47.942;11.804;2023-08-31T16:18:13;3.47;;;2.22;;
21827;SDS011;11076;47.942;11.804;2023-08-31T16:23:16;3.45;;;1.67;;
21827;SDS011;11076;47.942;11.804;2023-08-31T16:28:18;6.97;;;1.98;;
21827;SDS011;11076;47.942;11.804;2023-08-31T16:33:21;2.78;;;1.77;;
21827;SDS011;11076;47.942;11.804;2023-08-31T16:38:23;3.03;;;1.67;;
21827;SDS011;11076;47.942;11.804;2023-08-31T16:43:26;3.20;;;1.55;;
21827;SDS011;11076;47.942;11.804;2023-08-31T16:48:29;3.55;;;1.73;;
21827;SDS011;11076;47.942;11.804;2023-08-31T16:53:32;4.60;;;1.58;;
21827;SDS011;11076;47.942;11.804;2023-08-31T16:58:36;6.07;;;2.38;;
21827;SDS011;11076;47.942;11.804;2023-08-31T17:03:38;10.43;;;3.63;;
21827;SDS011;11076;47.942;11.804;2023-08-31T17:08:40;5.10;;;2.25;;
21827;SDS011;11076;47.942;11.804;2023-08-31T17:13:43;4.38;;;1.80;;
21827;SDS011;11076;47.942;11.804;2023-08-31T17:18:45;5.20;;;2.00;;
21827;SDS011;11076;47.942;11.804;2023-08-31T17:23:48;2.97;;;1.70;;
21827;SDS011;11076;47.942;11.804;2023-08-31T17:28:50;5.80;;;1.77;;
21827;SDS011;11076;47.942;11.804;2023-08-31T17:33:53;1.85;;;1.50;;
21827;SDS011;11076;47.942;11.804;2023-08-31T17:38:55;5.13;;;2.17;;
21827;SDS011;11076;47.942;11.804;2023-08-31T17:43:58;5.00;;;2.03;;
21827;SDS011;11076;47.942;11.804;2023-08-31T17:49:00;5.40;;;2.22;;
21827;SDS011;11076;47.942;11.804;2023-08-31T17:54:03;4.03;;;2.10;;
21827;SDS011;11076;47.942;11.804;2023-08-31T17:59:06;5.25;;;2.70;;
21827;SDS011;11076;47.942;11.804;2023-08-31T18:04:13;4.10;;;1.67;;
21827;SDS011;11076;47.942;11.804;2023-08-31T18:09:16;4.10;;;2.10;;
21827;SDS011;11076;47.942;11.804;2023-08-31T18:14:18;5.50;;;2.03;;
21827;SDS011;11076;47.942;11.804;2023-08-31T18:19:20;9.13;;;2.30;;
21827;SDS011;11076;47.942;11.804;2023-08-31T18:24:23;4.55;;;2.00;;
21827;SDS011;11076;47.942;11.804;2023-08-31T18:29:25;6.22;;;1.95;;
21827;SDS011;11076;47.942;11.804;2023-08-31T18:34:28;5.32;;;1.77;;
21827;SDS011;11076;47.942;11.804;2023-08-31T18:39:31;7.07;;;2.45;;
21827;SDS011;11076;47.942;11.804;2023-08-31T18:44:33;4.03;;;1.77;;
21827;SDS011;11076;47.942;11.804;2023-08-31T18:49:36;4.57;;;2.22;;
21827;SDS011;11076;47.942;11.804;2023-08-31T18:54:38;3.17;;;1.83;;
21827;SDS011;11076;47.942;11.804;2023-08-31T18:59:41;3.25;;;2.25;;
21827;SDS011;11076;47.942;11.804;2023-08-31T19:04:43;3.03;;;2.20;;
21827;SDS011;11076;47.942;11.804;2023-08-31T19:09:45;3.05;;;2.25;;
21827;SDS011;11076;47.942;11.804;2023-08-31T19:14:53;3.60;;;1.92;;
21827;SDS011;11076;47.942;11.804;2023-08-31T19:19:55;3.83;;;2.28;;
21827;SDS011;11076;47.942;11.804;2023-08-31T19:24:58;3.72;;;2.53;;
21827;SDS011;11076;47.942;11.804;2023-08-31T19:30:00;7.38;;;2.15;;
21827;SDS011;11076;47.942;11.804;2023-08-31T19:35:03;3.05;;;1.98;;
21827;SDS011;11076;47.942;11.804;2023-08-31T19:40:10;4.55;;;2.20;;
21827;SDS011;11076;47.942;11.804;2023-08-31T19:45:13;6.72;;;2.55;;
21827;SDS011;11076;47.942;11.804;2023-08-31T19:50:15;3.65;;;1.98;;
21827;SDS011;11076;47.942;11.804;2023-08-31T19:55:19;4.07;;;2.25;;
21827;SDS011;11076;47.942;11.804;2023-08-31T20:00:21;3.60;;;2.17;;
21827;SDS011;11076;47.942;11.804;2023-08-31T20:05:24;2.45;;;1.80;;
21827;SDS011;11076;47.942;11.804;2023-08-31T20:10:27;2.53;;;2.22;;
21827;SDS011;11076;47.942;11.804;2023-08-31T20:15:30;2.65;;;2.10;;
21827;SDS011;11076;47.942;11.804;2023-08-31T20:20:32;3.13;;;2.17;;
21827;SDS011;11076;47.942;11.804;2023-08-31T20:25:35;3.58;;;2.22;;
21827;SDS011;11076;47.942;11.804;2023-08-31T20:30:37;3.00;;;2.10;;
21827;SDS011;11076;47.942;11.804;2023-08-31T20:35:40;5.43;;;2.00;;
21827;SDS011;11076;47.942;11.804;2023-08-31T20:45:51;2.80;;;2.22;;
21827;SDS011;11076;47.942;11.804;2023-08-31T20:51:00;6.38;;;1.80;;
21827;SDS011;11076;47.942;11.804;2023-08-31T21:01:09;3.65;;;2.22;;
21827;SDS011;11076;47.942;11.804;2023-08-31T21:06:13;2.63;;;1.92;;
21827;SDS011;11076;47.942;11.804;2023-08-31T21:11:15;3.92;;;2.40;;
21827;SDS011;11076;47.942;11.804;2023-08-31T21:16:18;2.35;;;2.13;;
21827;SDS011;11076;47.942;11.804;2023-08-31T21:21:22;3.00;;;2.13;;
21827;SDS011;11076;47.942;11.804;2023-08-31T21:26:24;2.42;;;2.22;;
21827;SDS011;11076;47.942;11.804;2023-08-31T21:31:26;5.10;;;2.60;;
21827;SDS011;11076;47.942;11.804;2023-08-31T21:36:30;4.25;;;2.13;;
21827;SDS011;11076;47.942;11.804;2023-08-31T21:41:32;4.72;;;2.15;;
21827;SDS011;11076;47.942;11.804;2023-08-31T21:46:35;2.70;;;2.00;;
21827;SDS011;11076;47.942;11.804;2023-08-31T21:51:37;3.35;;;2.20;;
21827;SDS011;11076;47.942;11.804;2023-08-31T21:56:41;3.33;;;2.10;;
21827;SDS011;11076;47.942;11.804;2023-08-31T22:01:43;3.63;;;2.38;;
21827;SDS011;11076;47.942;11.804;2023-08-31T22:06:46;4.63;;;2.42;;
21827;SDS011;11076;47.942;11.804;2023-08-31T22:11:50;5.15;;;1.98;;
21827;SDS011;11076;47.942;11.804;2023-08-31T22:16:52;5.63;;;2.42;;
21827;SDS011;11076;47.942;11.804;2023-08-31T22:21:56;7.93;;;2.40;;
21827;SDS011;11076;47.942;11.804;2023-08-31T22:26:59;3.22;;;2.22;;
21827;SDS011;11076;47.942;11.804;2023-08-31T22:32:02;5.10;;;2.05;;
21827;SDS011;11076;47.942;11.804;2023-08-31T22:37:05;3.20;;;2.20;;
21827;SDS011;11076;47.942;11.804;2023-08-31T22:42:08;4.03;;;2.63;;
21827;SDS011;11076;47.942;11.804;2023-08-31T22:47:13;3.75;;;2.33;;
21827;SDS011;11076;47.942;11.804;2023-08-31T22:52:15;3.88;;;2.67;;
21827;SDS011;11076;47.942;11.804;2023-08-31T22:57:18;3.33;;;2.38;;
21827;SDS011;11076;47.942;11.804;2023-08-31T23:02:20;3.53;;;2.20;;
21827;SDS011;11076;47.942;11.804;2023-08-31T23:07:23;2.85;;;2.65;;
21827;SDS011;11076;47.942;11.804;2023-08-31T23:12:25;2.85;;;2.22;;
21827;SDS011;11076;47.942;11.804;2023-08-31T23:17:29;6.35;;;2.35;;
21827;SDS011;11076;47.942;11.804;2023-08-31T23:22:32;5.00;;;2.55;;
21827;SDS011;11076;47.942;11.804;2023-08-31T23:27:34;4.03;;;1.98;;
21827;SDS011;11076;47.942;11.804;2023-08-31T23:32:37;3.75;;;2.22;;
21827;SDS011;11076;47.942;11.804;2023-08-31T23:37:39;2.67;;;2.30;;
21827;SDS011;11076;47.942;11.804;2023-08-31T23:42:41;2.85;;;2.45;;
21827;SDS011;11076;47.942;11.804;2023-08-31T23:47:44;4.80;;;2.65;;
21827;SDS011;11076;47.942;11.804;2023-08-31T23:52:47;3.22;;;2.65;;
21827;SDS011;11076;47.942;11.804;2023-08-31T23:57:49;4.70;;;3.08;;
